createdAt,value
2022-07-25T00:01:12.357Z,42.56
2022-07-25T00:03:39.281Z,42.47
2022-07-25T00:06:06.957Z,42.54
2022-07-25T00:08:40.151Z,42.24
2022-07-25T00:11:06.704Z,42.07
2022-07-25T00:13:33.361Z,41.99
2022-07-25T00:15:59.957Z,42.59
2022-07-25T00:18:26.634Z,43.01
2022-07-25T00:20:53.322Z,43.07
2022-07-25T00:23:20.094Z,42.71
2022-07-25T00:25:46.747Z,43.15
2022-07-25T00:28:13.476Z,43.14
2022-07-25T00:30:40.289Z,42.78
2022-07-25T00:33:06.990Z,42.52
2022-07-25T00:35:33.630Z,42.95
2022-07-25T00:38:00.158Z,42.73
2022-07-25T00:40:26.946Z,43.29
2022-07-25T00:42:53.613Z,43.22
2022-07-25T00:45:20.233Z,43.62
2022-07-25T00:47:46.793Z,43.48
2022-07-25T00:50:13.340Z,43.15
2022-07-25T00:52:39.976Z,43.29
2022-07-25T00:55:07.716Z,43.42
2022-07-25T00:57:34.377Z,43.59
2022-07-25T01:00:00.982Z,43.60
2022-07-25T01:02:27.713Z,43.62
2022-07-25T01:04:54.958Z,43.81
2022-07-25T01:07:21.784Z,43.96
2022-07-25T01:09:48.839Z,44.09
2022-07-25T01:12:15.548Z,43.97
2022-07-25T01:14:42.136Z,44.27
2022-07-25T01:17:08.876Z,44.22
2022-07-25T01:19:35.518Z,44.42
2022-07-25T01:22:02.060Z,44.41
2022-07-25T01:24:29.155Z,44.46
2022-07-25T01:26:55.796Z,44.38
2022-07-25T01:29:22.458Z,44.51
2022-07-25T01:31:49.050Z,44.24
2022-07-25T01:34:15.659Z,45.12
2022-07-25T01:36:42.572Z,45.30
2022-07-25T01:39:09.208Z,45.30
2022-07-25T01:41:35.964Z,45.48
2022-07-25T01:44:02.749Z,45.87
2022-07-25T01:46:29.664Z,45.84
2022-07-25T01:48:56.475Z,45.32
2022-07-25T01:51:23.082Z,45.35
2022-07-25T01:53:53.219Z,45.43
2022-07-25T01:56:22.402Z,45.22
2022-07-25T01:58:49.210Z,45.54
2022-07-25T02:01:15.857Z,45.62
2022-07-25T02:03:42.448Z,45.78
2022-07-25T02:06:09.027Z,45.85
2022-07-25T02:08:35.615Z,45.91
2022-07-25T02:11:02.663Z,45.64
2022-07-25T02:13:29.322Z,45.62
2022-07-25T02:15:55.889Z,45.83
2022-07-25T02:18:22.459Z,46.01
2022-07-25T02:20:49.104Z,46.07
2022-07-25T02:23:15.669Z,46.22
2022-07-25T02:25:42.296Z,46.36
2022-07-25T02:28:10.672Z,46.23
2022-07-25T02:30:37.628Z,46.50
2022-07-25T02:33:04.331Z,46.57
2022-07-25T02:35:30.955Z,48.13
2022-07-25T02:37:57.726Z,47.95
2022-07-25T02:40:24.285Z,48.36
2022-07-25T02:42:50.851Z,48.33
2022-07-25T02:45:17.950Z,48.34
2022-07-25T02:47:44.745Z,48.49
2022-07-25T02:50:14.808Z,48.66
2022-07-25T02:52:42.342Z,48.55
2022-07-25T02:55:10.040Z,48.74
2022-07-25T02:57:36.656Z,49.00
2022-07-25T03:00:05.065Z,49.08
2022-07-25T03:02:31.606Z,49.39
2022-07-25T03:04:58.205Z,49.35
2022-07-25T03:07:24.802Z,49.65
2022-07-25T03:09:51.477Z,49.78
2022-07-25T03:12:18.083Z,49.77
2022-07-25T03:14:44.663Z,50.10
2022-07-25T03:17:11.269Z,50.26
2022-07-25T03:19:37.876Z,50.03
2022-07-25T03:22:04.453Z,50.47
2022-07-25T03:24:31.475Z,50.72
2022-07-25T03:26:58.120Z,50.71
2022-07-25T03:29:24.764Z,50.87
2022-07-25T03:31:51.432Z,51.03
2022-07-25T03:34:18.123Z,50.78
2022-07-25T03:36:44.696Z,50.58
2022-07-25T03:39:11.297Z,50.31
2022-07-25T03:41:37.851Z,50.47
2022-07-25T03:44:04.872Z,50.47
2022-07-25T03:46:31.659Z,50.23
2022-07-25T03:48:58.345Z,50.27
2022-07-25T03:51:24.991Z,50.18
2022-07-25T03:54:03.847Z,50.29
2022-07-25T03:56:40.328Z,50.68
2022-07-25T03:59:13.470Z,50.89
2022-07-25T04:01:40.704Z,51.12
2022-07-25T04:04:07.963Z,51.14
2022-07-25T04:06:34.903Z,51.07
2022-07-25T04:09:02.107Z,51.42
2022-07-25T04:11:30.772Z,51.02
2022-07-25T04:13:58.317Z,51.38
2022-07-25T04:16:25.365Z,51.66
2022-07-25T04:18:55.446Z,51.45
2022-07-25T04:21:23.672Z,51.54
2022-07-25T04:23:51.004Z,51.57
2022-07-25T04:26:18.148Z,51.56
2022-07-25T04:28:44.741Z,51.77
2022-07-25T04:31:11.457Z,52.17
2022-07-25T04:33:38.730Z,52.02
2022-07-25T04:36:06.396Z,51.65
2022-07-25T04:38:33.597Z,50.85
2022-07-25T04:41:00.308Z,50.55
2022-07-25T04:43:26.899Z,50.42
2022-07-25T04:45:53.909Z,50.49
2022-07-25T04:48:20.523Z,50.16
2022-07-25T04:50:47.150Z,50.14
2022-07-25T04:53:13.749Z,49.90
2022-07-25T04:55:40.754Z,50.46
2022-07-25T04:58:07.326Z,50.21
2022-07-25T05:00:34.104Z,50.05
2022-07-25T05:03:00.754Z,50.15
2022-07-25T05:05:27.469Z,49.92
2022-07-25T05:07:58.870Z,49.58
2022-07-25T05:10:26.906Z,48.93
2022-07-25T05:12:54.192Z,49.24
2022-07-25T05:15:21.207Z,48.33
2022-07-25T05:17:48.332Z,48.42
2022-07-25T05:20:14.932Z,48.54
2022-07-25T05:22:42.406Z,48.23
2022-07-25T05:25:12.281Z,47.89
2022-07-25T05:27:39.770Z,48.04
2022-07-25T05:30:08.316Z,47.59
2022-07-25T05:32:34.996Z,47.18
2022-07-25T05:35:01.583Z,46.79
2022-07-25T05:37:28.170Z,46.31
2022-07-25T05:39:54.800Z,45.88
2022-07-25T05:42:21.447Z,44.88
2022-07-25T05:44:48.286Z,44.40
2022-07-25T05:47:14.923Z,44.34
2022-07-25T05:49:41.510Z,44.05
2022-07-25T05:52:12.564Z,43.38
2022-07-25T05:54:39.946Z,42.44
2022-07-25T05:57:06.466Z,42.40
2022-07-25T05:59:33.112Z,42.10
2022-07-25T06:02:01.909Z,41.60
2022-07-25T06:04:28.900Z,40.52
2022-07-25T06:06:55.735Z,40.17
2022-07-25T06:09:23.171Z,39.45
2022-07-25T06:11:59.777Z,38.89
2022-07-25T06:14:27.398Z,37.44
2022-07-25T06:16:55.136Z,37.32
2022-07-25T06:19:21.920Z,37.02
2022-07-25T06:21:48.540Z,36.36
2022-07-25T06:24:15.261Z,35.93
2022-07-25T06:26:41.886Z,35.69
2022-07-25T06:29:08.591Z,34.87
2022-07-25T06:31:35.261Z,34.75
2022-07-25T06:34:01.854Z,35.13
2022-07-25T06:36:32.567Z,34.64
2022-07-25T06:39:00.018Z,34.30
2022-07-25T06:41:26.918Z,34.44
2022-07-25T06:43:53.480Z,34.60
2022-07-25T06:46:20.386Z,34.46
2022-07-25T06:48:47.026Z,34.36
2022-07-25T06:51:13.740Z,34.54
2022-07-25T06:53:40.366Z,33.80
2022-07-25T06:56:07.143Z,33.20
2022-07-25T06:58:33.980Z,33.58
2022-07-25T07:01:01.382Z,32.63
2022-07-25T07:03:28.361Z,32.57
2022-07-25T07:05:55.365Z,32.19
2022-07-25T07:08:22.163Z,32.19
2022-07-25T07:10:48.749Z,31.60
2022-07-25T07:13:23.964Z,31.45
2022-07-25T07:15:51.692Z,31.17
2022-07-25T07:18:19.798Z,31.31
2022-07-25T07:20:47.280Z,30.96
2022-07-25T07:23:16.575Z,31.13
2022-07-25T07:25:45.743Z,30.81
2022-07-25T07:28:12.934Z,30.88
2022-07-25T07:31:13.360Z,31.32
2022-07-25T07:33:26.162Z,31.05
2022-07-25T07:35:55.863Z,30.86
2022-07-25T07:38:24.138Z,30.89
2022-07-25T07:40:50.687Z,30.77
2022-07-25T07:43:17.267Z,31.40
2022-07-25T07:45:43.954Z,30.72
2022-07-25T07:48:10.733Z,30.10
2022-07-25T07:50:37.789Z,31.13
2022-07-25T07:53:04.598Z,30.46
2022-07-25T07:55:48.507Z,30.22
2022-07-25T07:58:18.822Z,30.41
2022-07-25T08:00:47.655Z,30.32
2022-07-25T08:03:18.477Z,30.23
2022-07-25T08:05:48.425Z,29.99
2022-07-25T08:08:15.324Z,30.41
2022-07-25T08:10:43.843Z,30.79
2022-07-25T08:13:19.520Z,31.77
2022-07-25T08:15:48.505Z,31.97
2022-07-25T08:18:17.376Z,32.37
2022-07-25T08:20:45.720Z,32.10
2022-07-25T08:23:12.858Z,31.29
2022-07-25T08:25:40.033Z,30.81
2022-07-25T08:28:07.386Z,30.34
2022-07-25T08:30:35.751Z,29.56
2022-07-25T08:33:04.687Z,28.60
2022-07-25T08:35:32.624Z,27.15
2022-07-25T08:38:00.945Z,26.43
2022-07-25T08:40:29.658Z,26.13
2022-07-25T08:42:56.703Z,26.13
2022-07-25T08:45:23.460Z,25.88
2022-07-25T08:47:51.826Z,25.17
2022-07-25T08:50:38.678Z,25.29
2022-07-25T08:53:31.646Z,24.45
2022-07-25T08:55:53.002Z,24.76
2022-07-25T08:58:19.673Z,24.31
2022-07-25T09:00:46.791Z,23.40
2022-07-25T09:03:13.685Z,23.83
2022-07-25T09:05:40.886Z,22.76
2022-07-25T09:08:17.429Z,22.48
2022-07-25T09:10:50.066Z,22.85
2022-07-25T09:13:17.883Z,22.29
2022-07-25T09:15:51.377Z,21.79
2022-07-25T09:18:23.619Z,22.35
2022-07-25T09:21:01.564Z,22.47
2022-07-25T09:23:33.580Z,22.10
2022-07-25T09:26:04.022Z,22.25
2022-07-25T09:28:30.843Z,22.44
2022-07-25T09:30:59.903Z,22.09
2022-07-25T09:33:28.331Z,22.74
2022-07-25T09:35:56.020Z,22.44
2022-07-25T09:38:24.104Z,23.25
2022-07-25T09:40:58.568Z,23.85
2022-07-25T09:43:38.838Z,24.69
2022-07-25T09:46:07.009Z,24.33
2022-07-25T09:48:35.378Z,24.04
2022-07-25T09:51:03.026Z,23.93
2022-07-25T09:53:29.863Z,24.03
2022-07-25T09:55:57.537Z,24.63
2022-07-25T09:58:25.250Z,25.07
2022-07-25T10:00:56.340Z,25.11
2022-07-25T10:03:51.468Z,24.94
2022-07-25T10:06:28.797Z,23.54
2022-07-25T10:08:55.720Z,21.92
2022-07-25T10:11:27.825Z,21.05
2022-07-25T10:13:55.391Z,19.49
2022-07-25T10:16:24.357Z,17.86
2022-07-25T10:18:57.127Z,16.63
2022-07-25T10:21:27.666Z,16.39
2022-07-25T10:24:07.904Z,16.14
2022-07-25T10:26:40.089Z,16.57
2022-07-25T10:29:11.339Z,18.10
2022-07-25T10:31:49.342Z,18.66
2022-07-25T10:34:16.773Z,20.27
2022-07-25T10:36:48.333Z,21.18
2022-07-25T10:39:17.191Z,21.07
2022-07-25T10:41:55.756Z,21.39
2022-07-25T10:44:22.531Z,22.60
2022-07-25T10:46:50.286Z,21.18
2022-07-25T10:49:31.014Z,20.14
2022-07-25T10:52:00.736Z,20.08
2022-07-25T10:54:36.991Z,20.39
2022-07-25T10:57:05.956Z,21.92
2022-07-25T10:59:39.850Z,22.84
2022-07-25T11:02:09.626Z,23.35
2022-07-25T11:04:36.629Z,23.51
2022-07-25T11:07:14.461Z,22.99
2022-07-25T11:09:43.946Z,20.63
2022-07-25T11:12:15.526Z,19.97
2022-07-25T11:14:42.793Z,21.67
2022-07-25T11:17:15.785Z,22.83
2022-07-25T11:19:44.915Z,23.73
2022-07-25T11:22:12.250Z,24.29
2022-07-25T11:24:43.272Z,24.30
2022-07-25T11:27:12.553Z,24.22
2022-07-25T11:29:40.262Z,23.98
2022-07-25T11:32:10.474Z,22.26
2022-07-25T11:34:44.020Z,21.34
2022-07-25T11:37:12.489Z,21.94
2022-07-25T11:39:41.194Z,22.76
2022-07-25T11:42:10.665Z,23.31
2022-07-25T11:44:47.648Z,27.94
2022-07-25T11:47:32.281Z,29.89
2022-07-25T11:50:02.532Z,28.62
2022-07-25T11:52:32.013Z,27.26
2022-07-25T11:55:03.730Z,26.47
2022-07-25T11:57:32.625Z,26.36
2022-07-25T12:00:00.621Z,25.72
2022-07-25T12:02:33.346Z,25.32
2022-07-25T12:05:06.671Z,24.20
2022-07-25T12:07:45.240Z,23.73
2022-07-25T12:10:35.073Z,23.93
2022-07-25T12:13:04.005Z,24.22
2022-07-25T12:15:33.335Z,23.24
2022-07-25T12:18:01.873Z,23.31
2022-07-25T12:20:31.440Z,23.41
2022-07-25T12:23:08.939Z,24.14
2022-07-25T12:25:40.755Z,23.91
2022-07-25T12:28:08.668Z,23.76
2022-07-25T12:30:35.305Z,24.44
2022-07-25T12:33:02.275Z,24.71
2022-07-25T12:35:29.245Z,24.72
2022-07-25T12:37:55.936Z,24.75
2022-07-25T12:40:22.752Z,24.65
2022-07-25T12:42:49.873Z,25.08
2022-07-25T12:45:17.765Z,25.37
2022-07-25T12:47:46.046Z,25.97
2022-07-25T12:50:13.699Z,25.37
2022-07-25T12:52:41.296Z,25.13
2022-07-25T12:55:10.053Z,24.95
2022-07-25T12:57:37.312Z,25.18
2022-07-25T13:00:10.012Z,24.99
2022-07-25T13:02:37.212Z,24.43
2022-07-25T13:05:04.626Z,24.54
2022-07-25T13:07:32.255Z,24.13
2022-07-25T13:09:58.887Z,25.66
2022-07-25T13:12:25.442Z,25.74
2022-07-25T13:14:52.293Z,26.42
2022-07-25T13:17:21.381Z,26.39
2022-07-25T13:19:51.909Z,27.15
2022-07-25T13:22:18.511Z,27.49
2022-07-25T13:24:45.080Z,27.65
2022-07-25T13:27:11.725Z,28.11
2022-07-25T13:29:38.345Z,27.82
2022-07-25T13:32:05.419Z,28.51
2022-07-25T13:34:32.778Z,28.06
2022-07-25T13:36:59.605Z,28.16
2022-07-25T13:39:27.119Z,27.42
2022-07-25T13:41:53.797Z,28.82
2022-07-25T13:44:20.292Z,28.80
2022-07-25T13:46:49.930Z,28.13
2022-07-25T13:49:17.522Z,27.42
2022-07-25T13:51:45.531Z,27.51
2022-07-25T13:54:12.764Z,28.09
2022-07-25T13:56:40.524Z,28.14
2022-07-25T13:59:08.583Z,27.83
2022-07-25T14:01:35.773Z,28.14
2022-07-25T14:04:02.469Z,27.72
2022-07-25T14:06:29.102Z,27.73
2022-07-25T14:08:55.638Z,27.22
2022-07-25T14:11:24.874Z,28.38
2022-07-25T14:13:55.993Z,28.38
2022-07-25T14:16:22.579Z,28.63
2022-07-25T14:18:49.262Z,29.14
2022-07-25T14:21:16.272Z,29.05
2022-07-25T14:23:42.950Z,28.09
2022-07-25T14:26:09.601Z,28.34
2022-07-25T14:28:36.207Z,28.31
2022-07-25T14:31:02.853Z,27.99
2022-07-25T14:33:29.408Z,27.90
2022-07-25T14:35:56.370Z,28.26
2022-07-25T14:38:22.993Z,28.08
2022-07-25T14:40:49.704Z,28.44
2022-07-25T14:43:16.345Z,28.71
2022-07-25T14:45:43.058Z,28.98
2022-07-25T14:48:09.642Z,29.56
2022-07-25T14:50:36.236Z,29.24
2022-07-25T14:53:02.780Z,28.83
2022-07-25T14:55:29.366Z,29.10
2022-07-25T14:57:57.815Z,29.31
2022-07-25T15:00:29.169Z,30.19
2022-07-25T15:02:56.814Z,30.43
2022-07-25T15:05:23.340Z,30.46
2022-07-25T15:07:49.955Z,30.41
2022-07-25T15:10:17.166Z,29.73
2022-07-25T15:12:43.961Z,29.67
2022-07-25T15:15:11.426Z,29.96
2022-07-25T15:17:38.709Z,30.28
2022-07-25T15:20:05.888Z,30.09
2022-07-25T15:22:32.500Z,29.92
2022-07-25T15:25:27.555Z,29.25
2022-07-25T15:27:45.607Z,29.46
2022-07-25T15:30:12.859Z,29.01
2022-07-25T15:32:40.165Z,29.14
2022-07-25T15:35:07.395Z,29.36
2022-07-25T15:37:34.057Z,29.52
2022-07-25T15:40:00.741Z,30.03
2022-07-25T15:42:29.365Z,29.64
2022-07-25T15:45:29.821Z,29.38
2022-07-25T15:47:46.239Z,30.06
2022-07-25T15:50:18.065Z,30.24
2022-07-25T15:52:44.653Z,30.23
2022-07-25T15:55:11.265Z,30.27
2022-07-25T15:57:37.920Z,30.41
2022-07-25T16:00:07.512Z,29.80
2022-07-25T16:02:34.944Z,29.43
2022-07-25T16:05:03.099Z,29.83
2022-07-25T16:07:29.926Z,29.22
2022-07-25T16:09:57.141Z,29.33
2022-07-25T16:12:28.278Z,29.00
2022-07-25T16:14:55.831Z,29.32
2022-07-25T16:17:23.162Z,29.52
2022-07-25T16:19:50.013Z,29.83
2022-07-25T16:22:16.920Z,29.53
2022-07-25T16:24:43.662Z,29.32
2022-07-25T16:27:10.399Z,29.49
2022-07-25T16:29:37.610Z,29.64
2022-07-25T16:32:05.409Z,29.75
2022-07-25T16:34:32.787Z,30.48
2022-07-25T16:37:01.233Z,30.36
2022-07-25T16:39:28.075Z,29.85
2022-07-25T16:41:54.978Z,30.49
2022-07-25T16:44:23.699Z,31.21
2022-07-25T16:46:50.845Z,30.78
2022-07-25T16:49:17.684Z,31.07
2022-07-25T16:51:45.082Z,31.29
2022-07-25T16:54:12.338Z,32.35
2022-07-25T16:56:39.051Z,31.85
2022-07-25T16:59:06.528Z,31.98
2022-07-25T17:01:35.048Z,32.49
2022-07-25T17:04:02.049Z,32.60
2022-07-25T17:06:28.811Z,32.17
2022-07-25T17:08:55.629Z,32.47
2022-07-25T17:11:22.488Z,32.92
2022-07-25T17:13:49.058Z,32.71
2022-07-25T17:16:15.757Z,33.17
2022-07-25T17:18:42.429Z,32.81
2022-07-25T17:21:09.549Z,33.27
2022-07-25T17:23:36.256Z,34.06
2022-07-25T17:26:05.216Z,34.46
2022-07-25T17:28:32.126Z,34.07
2022-07-25T17:30:58.808Z,34.32
2022-07-25T17:33:25.440Z,34.01
2022-07-25T17:35:52.420Z,34.35
2022-07-25T17:38:23.737Z,34.59
2022-07-25T17:40:52.563Z,35.09
2022-07-25T17:43:19.637Z,35.48
2022-07-25T17:45:46.286Z,35.03
2022-07-25T17:48:12.867Z,35.21
2022-07-25T17:50:39.518Z,35.85
2022-07-25T17:53:06.084Z,35.78
2022-07-25T17:55:38.232Z,36.09
2022-07-25T17:58:05.576Z,35.99
2022-07-25T18:00:32.392Z,36.56
2022-07-25T18:02:59.357Z,36.99
2022-07-25T18:05:26.112Z,36.90
2022-07-25T18:07:53.533Z,37.37
2022-07-25T18:10:21.775Z,37.25
2022-07-25T18:12:48.745Z,37.46
2022-07-25T18:15:15.582Z,36.89
2022-07-25T18:17:44.209Z,37.30
2022-07-25T18:20:12.191Z,37.25
2022-07-25T18:22:41.079Z,37.36
2022-07-25T18:25:11.204Z,37.03
2022-07-25T18:27:41.314Z,37.31
2022-07-25T18:30:08.828Z,37.31
2022-07-25T18:32:35.795Z,37.05
2022-07-25T18:35:02.608Z,37.17
2022-07-25T18:37:29.221Z,37.65
2022-07-25T18:39:55.850Z,38.18
2022-07-25T18:42:26.323Z,38.30
2022-07-25T18:44:56.383Z,38.41
2022-07-25T18:47:25.509Z,38.35
2022-07-25T18:49:53.659Z,38.84
2022-07-25T18:52:21.567Z,39.07
2022-07-25T18:54:48.201Z,39.40
2022-07-25T18:57:15.343Z,39.37
2022-07-25T18:59:42.140Z,39.44
2022-07-25T19:02:08.951Z,39.35
2022-07-25T19:04:35.653Z,40.10
2022-07-25T19:07:02.497Z,39.96
2022-07-25T19:09:29.104Z,40.47
2022-07-25T19:11:56.597Z,40.37
2022-07-25T19:14:26.029Z,40.25
2022-07-25T19:16:53.801Z,40.41
2022-07-25T19:19:20.706Z,40.72
2022-07-25T19:21:47.507Z,40.76
2022-07-25T19:24:14.229Z,40.66
2022-07-25T19:26:41.420Z,40.57
2022-07-25T19:29:09.268Z,41.11
2022-07-25T19:31:38.106Z,41.39
2022-07-25T19:34:06.628Z,41.31
2022-07-25T19:36:33.622Z,41.29
2022-07-25T19:39:00.886Z,41.74
2022-07-25T19:41:28.384Z,41.87
2022-07-25T19:43:55.008Z,41.96
2022-07-25T19:46:22.133Z,41.88
2022-07-25T19:48:50.067Z,42.13
2022-07-25T19:51:16.788Z,42.06
2022-07-25T19:53:43.379Z,41.88
2022-07-25T19:56:09.938Z,42.26
2022-07-25T19:58:38.971Z,42.37
2022-07-25T20:01:07.954Z,42.16
2022-07-25T20:03:35.067Z,42.46
2022-07-25T20:06:07.520Z,42.41
2022-07-25T20:08:34.612Z,42.35
2022-07-25T20:11:01.343Z,42.35
2022-07-25T20:13:29.573Z,42.64
2022-07-25T20:15:56.519Z,42.53
2022-07-25T20:18:23.150Z,42.24
2022-07-25T20:20:49.756Z,42.16
2022-07-25T20:23:16.439Z,42.54
2022-07-25T20:25:43.036Z,42.78
2022-07-25T20:28:09.775Z,44.77
2022-07-25T20:30:36.616Z,46.67
2022-07-25T20:33:05.347Z,47.08
2022-07-25T20:35:36.149Z,47.47
2022-07-25T20:38:02.842Z,48.17
2022-07-25T20:40:36.196Z,45.86
2022-07-25T20:43:04.380Z,45.95
2022-07-25T20:45:30.990Z,46.58
2022-07-25T20:47:57.715Z,46.41
2022-07-25T20:50:24.397Z,45.87
2022-07-25T20:52:51.281Z,45.99
2022-07-25T20:55:17.854Z,46.14
2022-07-25T20:57:50.138Z,46.20
2022-07-25T21:00:17.198Z,46.32
2022-07-25T21:02:43.850Z,46.07
2022-07-25T21:05:10.635Z,45.15
2022-07-25T21:07:37.251Z,45.34
2022-07-25T21:10:04.594Z,45.09
2022-07-25T21:12:33.041Z,44.99
2022-07-25T21:15:01.248Z,45.00
2022-07-25T21:17:28.309Z,45.18
2022-07-25T21:19:55.026Z,44.80
2022-07-25T21:22:22.146Z,44.72
2022-07-25T21:24:49.628Z,44.76
2022-07-25T21:27:17.319Z,44.56
2022-07-25T21:29:44.498Z,44.97
2022-07-25T21:32:13.533Z,45.02
2022-07-25T21:34:41.009Z,44.29
2022-07-25T21:37:07.656Z,44.67
2022-07-25T21:39:34.248Z,44.73
2022-07-25T21:42:01.858Z,44.13
2022-07-25T21:44:28.560Z,44.62
2022-07-25T21:46:55.114Z,44.12
2022-07-25T21:49:42.030Z,44.82
2022-07-25T21:52:13.686Z,44.39
2022-07-25T21:54:44.939Z,44.69
2022-07-25T21:57:13.693Z,44.66
2022-07-25T21:59:44.572Z,44.23
2022-07-25T22:02:11.710Z,44.43
2022-07-25T22:04:38.657Z,44.89
2022-07-25T22:07:05.968Z,44.51
2022-07-25T22:09:32.598Z,44.67
2022-07-25T22:11:59.337Z,44.92
2022-07-25T22:14:26.000Z,45.26
2022-07-25T22:16:53.044Z,45.39
2022-07-25T22:19:22.356Z,46.24
2022-07-25T22:21:51.894Z,46.88
2022-07-25T22:24:18.478Z,47.19
2022-07-25T22:26:45.547Z,47.69
2022-07-25T22:29:12.495Z,47.70
2022-07-25T22:31:39.457Z,47.50
2022-07-25T22:34:06.647Z,47.64
2022-07-25T22:36:33.206Z,47.93
2022-07-25T22:38:59.821Z,48.29
2022-07-25T22:41:26.430Z,47.98
2022-07-25T22:43:58.756Z,48.45
2022-07-25T22:46:28.250Z,48.98
2022-07-25T22:48:55.453Z,49.61
2022-07-25T22:51:23.078Z,49.48
2022-07-25T22:53:49.665Z,50.35
2022-07-25T22:56:16.884Z,50.81
2022-07-25T22:58:43.730Z,50.98
2022-07-25T23:01:12.597Z,51.15
2022-07-25T23:03:39.219Z,51.68
2022-07-25T23:06:06.547Z,52.30
2022-07-25T23:08:33.337Z,52.34
2022-07-25T23:11:00.053Z,52.80
2022-07-25T23:13:26.581Z,53.10
2022-07-25T23:15:53.161Z,53.13
2022-07-25T23:18:19.831Z,52.96
2022-07-25T23:20:46.433Z,53.10
2022-07-25T23:23:13.615Z,53.35
2022-07-25T23:25:40.405Z,52.87
2022-07-25T23:28:06.912Z,53.03
2022-07-25T23:30:39.710Z,52.59
2022-07-25T23:33:07.477Z,52.37
2022-07-25T23:35:34.715Z,52.30
2022-07-25T23:38:01.382Z,52.02
2022-07-25T23:40:28.091Z,52.25
2022-07-25T23:42:54.971Z,51.56
2022-07-25T23:45:24.924Z,50.77
2022-07-25T23:47:54.767Z,50.64
2022-07-25T23:50:22.541Z,50.31
2022-07-25T23:52:49.200Z,50.56
2022-07-25T23:55:15.733Z,50.00
2022-07-25T23:57:43.057Z,50.05
